Time;durP1;ratioP1;P1;durP2;ratioP2;P2;SDS_P1;SDS_P2;PMS_P1;PMS_P2;Temp;Humidity;BMP_temperature;BMP_pressure;BME280_temperature;BME280_humidity;BME280_pressure;Samples;Min_cycle;Max_cycle;Signal;HPM_P1;HPM_P2
2021/12/23 00:01:01;;;;;;;22.55;15.63;;;2.10;70.10;;;;;;5043206;28;20799;-46
2021/12/23 00:03:30;;;;;;;26.73;15.60;;;2.10;70.10;;;;;;5033133;28;20049;-44
2021/12/23 00:05:57;;;;;;;32.58;17.10;;;2.10;70.20;;;;;;5033369;28;20520;-45
2021/12/23 00:08:24;;;;;;;26.15;16.50;;;2.10;70.20;;;;;;5037984;28;20620;-47
2021/12/23 00:10:50;;;;;;;24.73;15.88;;;2.10;70.30;;;;;;5025355;28;20037;-45
2021/12/23 00:13:17;;;;;;;23.92;14.73;;;2.10;70.30;;;;;;5043200;28;20056;-49
2021/12/23 00:23:56;;;;;;;15.60;10.57;;;2.10;70.30;;;;;;5038665;28;20099;-46
2021/12/23 00:26:24;;;;;;;23.02;14.63;;;2.10;70.30;;;;;;5035102;28;20041;-49
2021/12/23 00:28:51;;;;;;;22.20;13.77;;;2.10;70.10;;;;;;5028329;28;20121;-48
2021/12/23 00:31:18;;;;;;;24.45;15.38;;;2.10;70.10;;;;;;5037724;28;20528;-47
2021/12/23 00:33:46;;;;;;;25.23;16.38;;;2.20;70.00;;;;;;5041510;28;20037;-47
2021/12/23 00:36:13;;;;;;;24.23;15.23;;;2.20;69.90;;;;;;5043974;28;20633;-47
2021/12/23 00:38:47;;;;;;;26.92;15.68;;;2.10;69.70;;;;;;5032922;28;20038;-47
2021/12/23 00:41:14;;;;;;;27.25;15.02;;;2.10;69.60;;;;;;5037292;28;20041;-45
2021/12/23 00:43:41;;;;;;;27.65;16.30;;;2.10;69.60;;;;;;5038256;28;20559;-46
2021/12/23 00:46:08;;;;;;;22.02;14.73;;;2.00;69.50;;;;;;5051935;28;20564;-46
2021/12/23 00:48:35;;;;;;;23.00;14.77;;;2.00;69.50;;;;;;5040656;28;20037;-51
2021/12/23 00:51:03;;;;;;;27.20;15.70;;;2.00;69.50;;;;;;5041772;28;20053;-47
2021/12/23 00:53:36;;;;;;;25.27;15.77;;;2.00;69.60;;;;;;5049156;28;20041;-47
2021/12/23 00:56:04;;;;;;;25.17;15.82;;;1.90;69.60;;;;;;5038029;28;20111;-49
2021/12/23 00:58:31;;;;;;;22.50;15.02;;;1.90;69.50;;;;;;5032285;28;20041;-46
2021/12/23 01:01:01;;;;;;;25.67;15.10;;;1.90;69.50;;;;;;5040122;28;20033;-45
2021/12/23 01:03:29;;;;;;;23.90;15.02;;;1.90;69.60;;;;;;5044961;28;20063;-51
2021/12/23 01:05:57;;;;;;;25.88;15.38;;;1.90;69.70;;;;;;5027455;28;20045;-44
2021/12/23 01:08:24;;;;;;;24.27;14.88;;;1.80;69.60;;;;;;5035082;28;20106;-49
2021/12/23 01:10:57;;;;;;;24.60;14.65;;;1.80;69.70;;;;;;5042970;28;20497;-46
2021/12/23 01:13:27;;;;;;;23.27;14.82;;;1.90;69.90;;;;;;5053136;28;20049;-51
2021/12/23 01:16:05;;;;;;;21.88;13.90;;;1.90;69.90;;;;;;5038766;28;20041;-46
2021/12/23 01:18:41;;;;;;;22.63;14.25;;;1.80;69.80;;;;;;5037710;28;20052;-46
2021/12/23 01:21:17;;;;;;;23.30;14.98;;;1.80;69.80;;;;;;5033698;28;20103;-48
2021/12/23 01:23:56;;;;;;;25.27;14.85;;;1.80;69.80;;;;;;5042179;28;20091;-46
2021/12/23 01:26:24;;;;;;;24.95;15.57;;;1.80;69.80;;;;;;5033692;28;20056;-48
2021/12/23 01:28:54;;;;;;;23.75;15.90;;;1.80;69.90;;;;;;5042981;28;20045;-49
2021/12/23 01:31:23;;;;;;;21.55;14.02;;;1.80;69.90;;;;;;5052861;28;20049;-47
2021/12/23 01:33:50;;;;;;;29.27;16.35;;;1.80;69.90;;;;;;5042311;28;20034;-50
2021/12/23 01:36:18;;;;;;;26.30;15.23;;;1.70;69.90;;;;;;5015234;28;20072;-45
2021/12/23 01:38:45;;;;;;;26.80;17.95;;;1.80;70.10;;;;;;5047243;28;20071;-47
2021/12/23 01:41:12;;;;;;;28.15;15.82;;;1.70;70.30;;;;;;5045731;28;20095;-48
2021/12/23 01:43:39;;;;;;;25.00;16.50;;;1.80;70.40;;;;;;5052644;28;20075;-47
2021/12/23 01:46:06;;;;;;;26.98;14.93;;;1.80;70.50;;;;;;5035056;28;20053;-45
2021/12/23 01:48:33;;;;;;;27.15;15.95;;;1.80;70.60;;;;;;5037018;28;20046;-46
2021/12/23 01:51:01;;;;;;;26.63;15.52;;;1.80;70.70;;;;;;5040454;28;20099;-47
2021/12/23 01:53:27;;;;;;;28.55;16.67;;;1.80;70.90;;;;;;5030994;28;20091;-48
2021/12/23 01:55:54;;;;;;;25.73;16.88;;;1.90;71.00;;;;;;5036877;28;20034;-46
2021/12/23 01:58:21;;;;;;;28.23;17.88;;;1.90;71.10;;;;;;5041844;28;20038;-47
2021/12/23 02:00:51;;;;;;;27.55;16.65;;;1.90;71.20;;;;;;5050250;28;20047;-46
2021/12/23 02:03:19;;;;;;;27.60;16.15;;;2.00;71.30;;;;;;5031341;28;20080;-47
2021/12/23 02:05:46;;;;;;;27.17;16.15;;;2.00;71.20;;;;;;5035571;28;20038;-49
2021/12/23 02:08:31;;;;;;;26.73;16.50;;;2.10;71.30;;;;;;5040257;28;20068;-47
2021/12/23 02:10:59;;;;;;;25.50;15.60;;;2.20;71.20;;;;;;5031602;28;20049;-47
2021/12/23 02:13:27;;;;;;;24.95;17.52;;;2.20;71.20;;;;;;5030219;28;20068;-48
2021/12/23 02:15:54;;;;;;;28.88;16.58;;;2.20;71.10;;;;;;5038551;28;20064;-46
2021/12/23 02:18:21;;;;;;;28.02;16.27;;;2.30;71.10;;;;;;5043467;28;20049;-48
2021/12/23 02:20:48;;;;;;;28.02;16.17;;;2.40;71.10;;;;;;5051469;28;20413;-46
2021/12/23 02:23:17;;;;;;;28.02;17.13;;;2.40;71.70;;;;;;5042608;28;20448;-46
2021/12/23 02:25:44;;;;;;;29.55;16.85;;;2.40;71.00;;;;;;5030987;28;20049;-46
2021/12/23 02:28:20;;;;;;;27.10;17.95;;;2.50;70.90;;;;;;5043296;28;20500;-46
2021/12/23 02:30:51;;;;;;;29.58;16.88;;;2.50;70.80;;;;;;5046921;28;20145;-46
2021/12/23 02:33:24;;;;;;;30.67;17.25;;;2.60;70.80;;;;;;5020334;28;20106;-46
2021/12/23 02:35:54;;;;;;;25.73;15.55;;;2.60;70.70;;;;;;5039450;28;20037;-46
2021/12/23 02:38:22;;;;;;;26.92;16.75;;;2.60;70.60;;;;;;5045966;28;20052;-46
2021/12/23 02:40:52;;;;;;;26.70;15.88;;;2.60;70.50;;;;;;5034497;28;20392;-46
2021/12/23 02:43:26;;;;;;;29.35;16.52;;;2.60;70.40;;;;;;5044700;28;20101;-47
2021/12/23 02:45:55;;;;;;;27.52;15.93;;;2.70;70.40;;;;;;5050185;28;20041;-46
2021/12/23 02:48:26;;;;;;;28.08;16.63;;;2.70;70.20;;;;;;5030616;28;20038;-45
2021/12/23 02:50:55;;;;;;;25.45;15.95;;;2.60;70.00;;;;;;5027484;28;20447;-46
2021/12/23 02:53:23;;;;;;;30.73;16.15;;;2.60;69.90;;;;;;5025860;28;20127;-46
2021/12/23 02:55:54;;;;;;;31.35;16.83;;;2.60;69.80;;;;;;5042722;28;20546;-46
2021/12/23 02:58:20;;;;;;;33.92;18.38;;;2.60;69.80;;;;;;5051150;28;20045;-46
2021/12/23 03:00:51;;;;;;;27.38;15.63;;;2.60;69.80;;;;;;5032453;28;20046;-47
2021/12/23 03:03:19;;;;;;;25.52;16.02;;;2.60;69.80;;;;;;5039406;28;20037;-50
2021/12/23 03:05:50;;;;;;;25.08;17.02;;;2.50;69.80;;;;;;5041380;28;20559;-46
2021/12/23 03:08:27;;;;;;;28.58;17.00;;;2.50;69.90;;;;;;5030095;28;20037;-45
2021/12/23 03:10:56;;;;;;;26.75;16.80;;;2.50;70.00;;;;;;5033453;28;20060;-45
2021/12/23 03:13:23;;;;;;;28.67;16.45;;;2.50;70.10;;;;;;5040555;28;20045;-45
2021/12/23 03:15:50;;;;;;;29.85;17.50;;;2.50;70.00;;;;;;5048676;28;20041;-45
2021/12/23 03:18:17;;;;;;;27.60;16.90;;;2.50;70.30;;;;;;5032350;28;20052;-47
2021/12/23 03:20:44;;;;;;;30.77;17.42;;;2.50;70.60;;;;;;5040101;28;20572;-48
2021/12/23 03:23:13;;;;;;;28.60;16.15;;;2.50;70.00;;;;;;5046408;28;20095;-47
2021/12/23 03:25:43;;;;;;;31.15;17.42;;;2.50;70.00;;;;;;5028669;28;20091;-45
2021/12/23 03:28:10;;;;;;;29.90;18.38;;;2.50;70.00;;;;;;5037219;28;20455;-44
2021/12/23 03:30:37;;;;;;;27.73;15.20;;;2.50;70.10;;;;;;5033694;28;20045;-44
2021/12/23 03:33:05;;;;;;;27.75;16.25;;;2.50;70.10;;;;;;5042255;28;20459;-46
2021/12/23 03:35:33;;;;;;;30.08;17.45;;;2.50;70.10;;;;;;5050626;28;20041;-50
2021/12/23 03:38:00;;;;;;;24.75;16.25;;;2.50;70.10;;;;;;5027397;28;20045;-49
2021/12/23 03:40:27;;;;;;;25.40;16.60;;;2.50;70.20;;;;;;5042246;23;20068;-46
2021/12/23 03:42:54;;;;;;;27.48;16.63;;;2.50;70.20;;;;;;5022205;28;20046;-46
2021/12/23 03:45:21;;;;;;;24.05;15.57;;;2.50;70.10;;;;;;5025848;28;20095;-46
2021/12/23 03:47:49;;;;;;;24.33;15.95;;;2.50;70.10;;;;;;5030621;28;20080;-44
2021/12/23 03:50:18;;;;;;;24.67;15.75;;;2.50;70.00;;;;;;5019623;28;20076;-46
2021/12/23 03:52:45;;;;;;;21.77;15.02;;;2.50;70.00;;;;;;5025349;28;20053;-44
2021/12/23 03:55:13;;;;;;;25.95;16.27;;;2.50;70.10;;;;;;5033069;28;20084;-45
2021/12/23 03:57:40;;;;;;;26.33;16.08;;;2.50;70.10;;;;;;5030904;28;20038;-45
2021/12/23 04:00:12;;;;;;;25.90;16.55;;;2.50;70.20;;;;;;5026323;28;20050;-45
2021/12/23 04:02:39;;;;;;;26.88;16.73;;;2.50;70.30;;;;;;5030496;28;20087;-45
2021/12/23 04:05:07;;;;;;;23.15;15.75;;;2.50;70.40;;;;;;5032341;28;20045;-46
2021/12/23 04:07:34;;;;;;;24.48;15.18;;;2.50;70.50;;;;;;5025084;28;20108;-48
2021/12/23 04:10:03;;;;;;;26.45;16.00;;;2.60;70.50;;;;;;5004054;28;20049;-45
2021/12/23 04:12:30;;;;;;;26.48;16.20;;;2.60;70.30;;;;;;5014613;28;20084;-45
2021/12/23 04:14:56;;;;;;;30.35;17.38;;;2.60;70.20;;;;;;5013570;28;20037;-45
2021/12/23 04:17:23;;;;;;;27.55;16.73;;;2.60;70.10;;;;;;5018073;28;20038;-47
2021/12/23 04:19:50;;;;;;;24.70;15.50;;;2.60;70.10;;;;;;5025669;28;20069;-47
2021/12/23 04:22:17;;;;;;;24.85;15.40;;;2.60;70.10;;;;;;5037327;28;20103;-49
2021/12/23 04:24:44;;;;;;;27.25;16.25;;;2.60;70.00;;;;;;5024806;28;20046;-46
2021/12/23 04:27:11;;;;;;;23.80;14.85;;;2.60;70.00;;;;;;5029932;28;20050;-50
2021/12/23 04:29:38;;;;;;;24.75;16.30;;;2.50;69.90;;;;;;5029008;28;20107;-46
2021/12/23 04:32:05;;;;;;;25.35;15.30;;;2.60;69.90;;;;;;5037481;28;20041;-48
2021/12/23 04:34:32;;;;;;;24.13;15.20;;;2.50;69.80;;;;;;5033867;28;20045;-50
2021/12/23 04:36:59;;;;;;;25.42;15.75;;;2.50;69.70;;;;;;5032491;28;20045;-48
2021/12/23 04:39:25;;;;;;;24.83;15.77;;;2.50;69.60;;;;;;5032347;28;20045;-48
2021/12/23 04:41:54;;;;;;;25.00;14.85;;;2.40;69.50;;;;;;5033690;28;20034;-47
2021/12/23 04:44:23;;;;;;;23.00;14.98;;;2.40;69.60;;;;;;5028971;28;20044;-48
2021/12/23 04:46:50;;;;;;;21.38;14.45;;;2.40;69.70;;;;;;5028601;28;20060;-49
2021/12/23 04:49:21;;;;;;;23.30;15.10;;;2.40;69.70;;;;;;5026939;28;20076;-47
2021/12/23 04:51:49;;;;;;;25.60;16.15;;;2.30;69.60;;;;;;5013216;28;20056;-47
2021/12/23 04:54:16;;;;;;;24.48;16.13;;;2.30;69.50;;;;;;5028322;28;20041;-46
2021/12/23 04:56:43;;;;;;;25.27;14.70;;;2.30;69.50;;;;;;5022771;28;20034;-47
2021/12/23 04:59:10;;;;;;;20.75;14.93;;;2.20;69.50;;;;;;5016791;28;20080;-48
2021/12/23 05:01:36;;;;;;;25.60;16.60;;;2.20;69.50;;;;;;5016657;28;20084;-48
2021/12/23 05:04:04;;;;;;;25.38;15.88;;;2.20;69.60;;;;;;5030278;28;20472;-46
2021/12/23 05:06:31;;;;;;;26.17;15.32;;;2.20;69.80;;;;;;5019260;28;20559;-48
2021/12/23 05:08:58;;;;;;;24.27;14.65;;;2.10;70.60;;;;;;5025962;28;20049;-46
2021/12/23 05:11:24;;;;;;;28.00;16.17;;;2.10;70.00;;;;;;5029123;28;20461;-47
2021/12/23 05:13:53;;;;;;;26.75;16.67;;;2.10;70.10;;;;;;5026543;28;20042;-46
2021/12/23 05:16:20;;;;;;;27.25;17.40;;;2.10;70.20;;;;;;5036215;28;20555;-48
2021/12/23 05:18:47;;;;;;;28.65;16.50;;;2.10;70.30;;;;;;5030067;28;20586;-47
2021/12/23 05:21:14;;;;;;;30.55;17.05;;;2.10;70.40;;;;;;5033756;28;20034;-49
2021/12/23 05:23:40;;;;;;;25.60;16.55;;;2.10;70.50;;;;;;5024742;28;20056;-49
2021/12/23 05:26:08;;;;;;;29.88;17.58;;;2.10;70.60;;;;;;5023971;28;20046;-47
2021/12/23 05:28:36;;;;;;;29.40;17.27;;;2.10;70.80;;;;;;5015652;28;20618;-45
2021/12/23 05:31:04;;;;;;;28.08;16.92;;;2.10;70.80;;;;;;5029057;28;20081;-46
2021/12/23 05:33:31;;;;;;;27.90;17.02;;;2.20;70.90;;;;;;5024817;28;20041;-45
2021/12/23 05:35:58;;;;;;;28.30;16.48;;;2.20;71.00;;;;;;5016744;28;20042;-46
2021/12/23 05:38:25;;;;;;;27.45;14.95;;;2.20;71.10;;;;;;5019218;28;20049;-47
2021/12/23 05:40:52;;;;;;;25.73;16.33;;;2.30;71.20;;;;;;5019824;28;20292;-46
2021/12/23 05:43:18;;;;;;;25.75;15.82;;;2.30;71.80;;;;;;5019267;28;20038;-47
2021/12/23 05:45:45;;;;;;;23.90;16.02;;;2.30;71.20;;;;;;5018097;28;20073;-48
2021/12/23 05:48:12;;;;;;;24.20;16.20;;;2.40;71.10;;;;;;5015409;28;20046;-51
2021/12/23 05:50:39;;;;;;;24.73;15.98;;;2.40;71.10;;;;;;5017149;28;20108;-50
2021/12/23 05:53:06;;;;;;;27.70;16.30;;;2.50;71.10;;;;;;5021438;28;20107;-45
2021/12/23 05:55:33;;;;;;;29.77;18.20;;;2.50;71.20;;;;;;5020158;28;20074;-49
2021/12/23 05:58:02;;;;;;;28.38;17.17;;;2.50;71.20;;;;;;5015776;28;20099;-46
2021/12/23 06:00:32;;;;;;;27.00;15.77;;;2.60;71.20;;;;;;5015185;28;20042;-48
2021/12/23 06:03:01;;;;;;;26.13;16.63;;;2.60;71.20;;;;;;5013815;28;20441;-46
2021/12/23 06:05:28;;;;;;;23.70;15.85;;;2.60;71.20;;;;;;5012855;28;20050;-46
2021/12/23 06:07:55;;;;;;;27.40;17.05;;;2.70;71.20;;;;;;5015102;28;20441;-45
2021/12/23 06:10:22;;;;;;;28.55;16.52;;;2.70;71.10;;;;;;5014417;28;20038;-47
2021/12/23 06:12:51;;;;;;;27.38;16.45;;;2.70;71.10;;;;;;5015291;28;20521;-50
2021/12/23 06:15:18;;;;;;;28.23;17.33;;;2.70;71.10;;;;;;5013432;28;20468;-48
2021/12/23 06:17:45;;;;;;;27.25;17.33;;;2.80;71.00;;;;;;5022371;28;20408;-51
2021/12/23 06:20:13;;;;;;;25.42;17.02;;;2.80;71.00;;;;;;5026958;28;20049;-48
2021/12/23 06:22:39;;;;;;;27.17;17.02;;;2.90;71.00;;;;;;5027093;28;20409;-48
2021/12/23 06:25:09;;;;;;;24.98;15.73;;;2.90;71.00;;;;;;5015321;28;20050;-46
2021/12/23 06:27:36;;;;;;;25.17;15.35;;;2.90;71.00;;;;;;5018693;28;20053;-51
2021/12/23 06:30:21;;;;;;;27.38;15.90;;;2.90;70.90;;;;;;5015244;28;20475;-48
2021/12/23 06:32:52;;;;;;;26.75;16.50;;;2.90;71.00;;;;;;5033748;28;20045;-48
2021/12/23 06:35:23;;;;;;;29.13;16.98;;;3.00;70.90;;;;;;5016233;28;20083;-45
2021/12/23 06:37:51;;;;;;;25.25;16.63;;;3.00;71.00;;;;;;5029053;28;20053;-46
2021/12/23 06:40:18;;;;;;;25.70;16.33;;;3.00;71.00;;;;;;5026306;28;20119;-46
2021/12/23 06:42:45;;;;;;;28.45;16.90;;;3.00;70.90;;;;;;5021109;28;20076;-49
2021/12/23 06:45:13;;;;;;;28.70;17.63;;;3.00;70.90;;;;;;5020413;28;20042;-48
2021/12/23 06:47:40;;;;;;;26.52;17.38;;;3.00;70.90;;;;;;5019751;28;20057;-47
2021/12/23 06:50:10;;;;;;;30.90;19.38;;;3.10;71.00;;;;;;5032676;28;20493;-45
2021/12/23 06:52:38;;;;;;;38.60;22.00;;;3.10;71.00;;;;;;5020195;28;20053;-50
2021/12/23 06:55:06;;;;;;;30.45;17.70;;;3.10;71.00;;;;;;5017443;28;20041;-46
2021/12/23 06:57:33;;;;;;;26.65;16.88;;;3.10;71.00;;;;;;5018460;28;20038;-46
2021/12/23 07:00:00;;;;;;;30.73;20.13;;;3.10;70.90;;;;;;5000578;28;20042;-47
2021/12/23 07:02:29;;;;;;;33.65;19.10;;;3.10;71.00;;;;;;5015197;28;20486;-48
2021/12/23 07:04:56;;;;;;;33.58;19.88;;;3.20;71.00;;;;;;5018736;28;20123;-50
2021/12/23 07:07:29;;;;;;;32.25;20.08;;;3.20;70.90;;;;;;5020126;28;20056;-47
2021/12/23 07:09:56;;;;;;;35.10;22.25;;;3.20;70.90;;;;;;5031660;28;20038;-51
2021/12/23 07:12:23;;;;;;;37.58;22.60;;;3.20;70.80;;;;;;5033673;28;20046;-46
2021/12/23 07:14:51;;;;;;;33.08;20.27;;;3.20;70.80;;;;;;5015034;28;20048;-45
2021/12/23 07:17:23;;;;;;;33.28;20.15;;;3.20;70.80;;;;;;5019167;28;20069;-50
2021/12/23 07:19:50;;;;;;;34.28;22.17;;;3.20;70.80;;;;;;5024501;28;20045;-47
2021/12/23 07:22:17;;;;;;;34.97;21.63;;;3.20;70.80;;;;;;5015795;28;20551;-48
2021/12/23 07:24:43;;;;;;;32.00;20.08;;;3.30;70.80;;;;;;5021273;28;20049;-47
2021/12/23 07:27:10;;;;;;;30.35;20.20;;;3.20;70.80;;;;;;5025225;28;20080;-46
2021/12/23 07:29:37;;;;;;;38.47;23.63;;;3.20;70.80;;;;;;5022484;28;20046;-46
2021/12/23 07:32:06;;;;;;;35.55;22.73;;;3.30;70.90;;;;;;5011147;28;20460;-49
2021/12/23 07:34:33;;;;;;;32.10;20.83;;;3.30;70.90;;;;;;5023728;28;20115;-48
2021/12/23 07:37:00;;;;;;;33.80;20.15;;;3.30;71.60;;;;;;5024496;28;20076;-46
2021/12/23 07:39:30;;;;;;;36.00;20.05;;;3.30;71.00;;;;;;5027484;28;20091;-49
2021/12/23 07:42:15;;;;;;;37.53;20.95;;;3.30;71.00;;;;;;5026708;28;20046;-45
2021/12/23 07:44:43;;;;;;;34.38;21.15;;;3.30;71.00;;;;;;5005576;28;20077;-47
2021/12/23 07:47:11;;;;;;;36.45;21.70;;;3.30;71.00;;;;;;5024895;28;20053;-45
2021/12/23 07:49:41;;;;;;;33.35;20.23;;;3.30;71.10;;;;;;5031691;28;20555;-50
2021/12/23 07:52:08;;;;;;;37.10;20.65;;;3.30;71.10;;;;;;5026376;28;20049;-46
2021/12/23 07:54:35;;;;;;;31.88;19.23;;;3.40;71.10;;;;;;5010788;28;20084;-45
2021/12/23 07:57:03;;;;;;;35.28;20.27;;;3.40;71.20;;;;;;4993375;28;20054;-46
2021/12/23 07:59:30;;;;;;;35.42;18.73;;;3.40;71.10;;;;;;5006345;28;20072;-46
2021/12/23 08:01:57;;;;;;;34.13;19.38;;;3.40;71.00;;;;;;5004052;28;20042;-47
2021/12/23 08:04:25;;;;;;;29.10;19.10;;;3.50;71.10;;;;;;5013264;28;20041;-47
2021/12/23 08:06:55;;;;;;;32.63;19.55;;;3.50;71.00;;;;;;5000870;28;20103;-44
2021/12/23 08:09:22;;;;;;;32.97;20.77;;;3.50;71.10;;;;;;5011509;28;20042;-49
2021/12/23 08:11:49;;;;;;;36.15;20.10;;;3.50;71.00;;;;;;5011113;28;20493;-46
2021/12/23 08:14:16;;;;;;;30.70;18.55;;;3.50;71.00;;;;;;5025346;28;20034;-50
2021/12/23 08:16:43;;;;;;;35.75;20.73;;;3.60;71.00;;;;;;5007857;28;20445;-48
2021/12/23 08:19:10;;;;;;;34.47;20.60;;;3.60;71.00;;;;;;5023139;28;20500;-47
2021/12/23 08:21:37;;;;;;;31.92;21.05;;;3.60;71.10;;;;;;5006605;28;20042;-48
2021/12/23 08:24:04;;;;;;;37.67;22.08;;;3.60;71.10;;;;;;4998069;28;20152;-47
2021/12/23 08:26:39;;;;;;;35.85;22.80;;;3.70;71.10;;;;;;5003843;28;20052;-48
2021/12/23 08:29:08;;;;;;;41.90;23.23;;;3.70;71.10;;;;;;5015744;28;20046;-49
2021/12/23 08:31:36;;;;;;;36.15;22.50;;;3.70;71.10;;;;;;5008823;28;20056;-46
2021/12/23 08:34:03;;;;;;;34.35;23.08;;;3.70;71.00;;;;;;5019942;28;20426;-48
2021/12/23 08:36:30;;;;;;;40.28;23.05;;;3.80;71.00;;;;;;5006464;28;20111;-50
2021/12/23 08:38:58;;;;;;;36.70;23.10;;;3.80;71.00;;;;;;5014925;28;20042;-49
2021/12/23 08:41:25;;;;;;;34.58;22.67;;;3.80;70.90;;;;;;5002853;28;20061;-50
2021/12/23 08:43:52;;;;;;;40.25;22.98;;;3.90;70.90;;;;;;5020275;28;20100;-49
2021/12/23 08:46:19;;;;;;;37.40;22.80;;;3.90;70.90;;;;;;5006606;28;20050;-46
2021/12/23 08:48:46;;;;;;;34.00;20.73;;;3.90;70.90;;;;;;5021215;28;20045;-46
2021/12/23 08:51:13;;;;;;;34.65;21.15;;;4.00;70.90;;;;;;5005599;28;20041;-48
2021/12/23 08:53:40;;;;;;;35.42;21.15;;;3.90;71.40;;;;;;5011598;28;20053;-50
2021/12/23 08:56:08;;;;;;;33.78;20.30;;;4.00;70.80;;;;;;5008570;28;20076;-49
2021/12/23 08:58:37;;;;;;;32.85;20.98;;;4.00;70.80;;;;;;5015016;28;20053;-50
2021/12/23 09:01:04;;;;;;;34.70;21.17;;;4.00;70.70;;;;;;5012229;28;20092;-47
2021/12/23 09:03:32;;;;;;;35.45;21.40;;;4.10;70.80;;;;;;5006688;28;20065;-48
2021/12/23 09:06:03;;;;;;;36.08;21.88;;;4.10;70.80;;;;;;5008546;28;20092;-50
2021/12/23 09:08:30;;;;;;;33.50;21.52;;;4.10;70.80;;;;;;5014987;28;20123;-49
2021/12/23 09:10:58;;;;;;;31.52;20.08;;;4.20;70.90;;;;;;5008645;28;20445;-45
2021/12/23 09:13:29;;;;;;;36.20;20.63;;;4.20;71.60;;;;;;5014859;28;20053;-48
2021/12/23 09:15:56;;;;;;;30.20;19.95;;;4.30;71.60;;;;;;5011926;28;20037;-46
2021/12/23 09:18:23;;;;;;;29.75;19.65;;;4.30;71.00;;;;;;5020243;28;20455;-47
2021/12/23 09:20:52;;;;;;;33.20;21.17;;;4.30;70.90;;;;;;5009916;28;20131;-47
2021/12/23 09:23:19;;;;;;;31.05;19.65;;;4.40;70.90;;;;;;5014137;28;20038;-48
2021/12/23 09:25:47;;;;;;;38.72;21.23;;;4.40;70.80;;;;;;5013898;28;20038;-47
2021/12/23 09:28:34;;;;;;;31.17;19.80;;;4.50;70.70;;;;;;5020886;28;20086;-47
2021/12/23 09:33:49;;;;;;;31.75;17.90;;;4.60;70.60;;;;;;5016969;28;20511;-47
2021/12/23 09:36:16;;;;;;;34.08;19.38;;;4.60;70.50;;;;;;5010879;28;20481;-49
2021/12/23 09:38:43;;;;;;;30.15;19.33;;;4.70;70.60;;;;;;5023920;28;20041;-48
2021/12/23 09:41:13;;;;;;;31.65;19.92;;;4.80;70.40;;;;;;5008263;28;20033;-48
2021/12/23 09:43:41;;;;;;;29.77;19.23;;;4.80;70.30;;;;;;5019159;28;20064;-51
2021/12/23 09:46:13;;;;;;;29.70;18.27;;;4.80;70.20;;;;;;5011469;28;20456;-51
2021/12/23 09:48:42;;;;;;;27.88;19.10;;;4.90;70.20;;;;;;5025506;28;20116;-50
2021/12/23 09:51:13;;;;;;;30.73;19.13;;;4.90;70.10;;;;;;5016285;28;20056;-48
2021/12/23 09:53:43;;;;;;;28.63;17.25;;;5.00;70.20;;;;;;5022701;28;20656;-50
2021/12/23 09:56:11;;;;;;;28.20;17.75;;;5.00;70.10;;;;;;5007185;28;20104;-49
2021/12/23 09:58:38;;;;;;;27.02;16.92;;;5.10;70.10;;;;;;5014112;28;20046;-48
2021/12/23 10:01:06;;;;;;;24.10;16.60;;;5.10;70.00;;;;;;5011316;28;20037;-51
2021/12/23 10:03:34;;;;;;;26.45;16.92;;;5.10;69.80;;;;;;5022579;28;20120;-47
2021/12/23 10:06:01;;;;;;;26.75;17.58;;;5.20;69.80;;;;;;5016488;28;20054;-48
2021/12/23 10:08:29;;;;;;;29.65;17.73;;;5.20;69.70;;;;;;5013700;28;20049;-50
2021/12/23 10:11:04;;;;;;;27.75;18.00;;;5.30;69.80;;;;;;5008618;28;20038;-46
2021/12/23 10:30:33;;;;;;;36.65;19.77;;;5.50;69.30;;;;;;4991541;28;20053;-75
2021/12/23 10:38:49;;;;;;;27.17;17.75;;;5.60;69.20;;;;;;4999794;28;20042;-75
2021/12/23 10:41:23;;;;;;;29.05;18.33;;;5.70;69.00;;;;;;5002570;28;20406;-75
2021/12/23 10:43:55;;;;;;;29.85;18.13;;;5.70;69.00;;;;;;4991593;28;20049;-75
2021/12/23 10:46:28;;;;;;;25.30;16.45;;;6.00;69.20;;;;;;4975914;28;20053;-75
2021/12/23 10:52:07;;;;;;;26.02;16.75;;;5.80;69.20;;;;;;5007993;28;20052;-75
2021/12/23 11:00:25;;;;;;;27.52;16.67;;;5.90;68.70;;;;;;5005121;28;20038;-75
2021/12/23 11:03:30;;;;;;;28.83;17.27;;;5.90;68.70;;;;;;5006316;28;20062;-75
2021/12/23 11:06:15;;;;;;;27.85;17.88;;;6.00;68.70;;;;;;5006966;28;20111;-75
2021/12/23 11:39:26;;;;;;;22.83;14.10;;;6.40;69.00;;;;;;5006075;28;20521;-75
2021/12/23 11:42:02;;;;;;;21.67;13.45;;;6.40;69.10;;;;;;5026988;28;20042;-75
2021/12/23 11:44:31;;;;;;;22.50;14.88;;;6.50;69.00;;;;;;4994635;28;20493;-75
2021/12/23 11:47:03;;;;;;;20.45;13.98;;;6.50;68.90;;;;;;4991205;28;20046;-75
2021/12/23 11:49:30;;;;;;;;;;;6.60;69.00;;;;;;5004124;28;20490;-75
2021/12/23 11:51:57;;;;;;;18.38;12.02;;;6.60;68.80;;;;;;5008615;28;19925;-75
2021/12/23 11:54:32;;;;;;;20.67;13.15;;;6.70;69.10;;;;;;5001029;28;20046;-76
2021/12/23 11:57:12;;;;;;;21.27;13.57;;;6.80;68.80;;;;;;4990008;28;20038;-75
2021/12/23 11:59:42;;;;;;;19.63;13.88;;;6.80;68.70;;;;;;5007704;28;20061;-75
2021/12/23 12:02:17;;;;;;;20.20;13.20;;;6.90;68.80;;;;;;4990140;28;20596;-76
2021/12/23 12:04:45;;;;;;;21.00;14.10;;;7.00;68.70;;;;;;4982325;28;20068;-75
2021/12/23 12:07:21;;;;;;;20.60;13.07;;;7.00;68.80;;;;;;5002287;28;20041;-75
2021/12/23 12:10:07;;;;;;;22.25;13.80;;;7.10;68.70;;;;;;4993884;28;20050;-75
2021/12/23 12:12:35;;;;;;;19.85;12.80;;;7.20;68.40;;;;;;4993665;28;20042;-76
2021/12/23 12:15:03;;;;;;;22.67;12.63;;;7.30;68.70;;;;;;4998000;28;20053;-75
2021/12/23 12:17:34;;;;;;;21.23;13.75;;;7.30;68.70;;;;;;4983148;28;20542;-76
2021/12/23 12:20:24;;;;;;;23.80;14.48;;;7.40;68.70;;;;;;5010379;28;20049;-75
2021/12/23 12:22:59;;;;;;;19.65;13.20;;;7.50;68.40;;;;;;5005237;28;20042;-76
2021/12/23 12:25:25;;;;;;;18.23;12.63;;;7.50;68.40;;;;;;4989506;28;20045;-76
2021/12/23 12:27:55;;;;;;;22.02;14.45;;;7.60;68.30;;;;;;4945737;28;20059;-76
2021/12/23 12:30:53;;;;;;;23.85;14.85;;;7.70;68.00;;;;;;5004543;28;20042;-74
2021/12/23 12:33:25;;;;;;;22.45;14.60;;;7.70;67.40;;;;;;4984936;28;20049;-75
2021/12/23 12:36:01;;;;;;;24.98;15.40;;;7.80;67.80;;;;;;4993625;28;20038;-74
2021/12/23 12:39:14;;;;;;;24.63;15.60;;;7.90;67.70;;;;;;4991841;28;20130;-75
2021/12/23 12:41:41;;;;;;;;;;;8.00;67.30;;;;;;4981423;28;20054;-75
2021/12/23 12:44:27;;;;;;;21.48;12.80;;;8.10;67.70;;;;;;4986534;28;19929;-75
2021/12/23 12:49:42;;;;;;;22.75;13.60;;;8.20;68.00;;;;;;4993436;28;20046;-74
2021/12/23 12:52:17;;;;;;;22.55;13.85;;;8.20;67.80;;;;;;4974028;28;20453;-75
2021/12/23 12:54:52;;;;;;;22.67;13.23;;;8.30;67.50;;;;;;4984793;28;20054;-75
2021/12/23 12:57:23;;;;;;;22.95;14.50;;;8.40;67.20;;;;;;4979375;28;20034;-75
2021/12/23 12:59:51;;;;;;;26.90;14.98;;;8.40;67.30;;;;;;4984722;28;20042;-74
2021/12/23 13:02:38;;;;;;;26.17;15.35;;;8.50;67.40;;;;;;4976262;28;20049;-75
2021/12/23 13:05:08;;;;;;;20.92;13.82;;;8.50;66.30;;;;;;5004240;28;20473;-74
2021/12/23 13:08:23;;;;;;;21.08;13.38;;;8.50;66.90;;;;;;4991980;28;20115;-74
2021/12/23 13:11:12;;;;;;;;;;;8.60;66.70;;;;;;5000306;28;20053;-75
2021/12/23 13:14:01;;;;;;;23.63;13.98;;;8.70;66.80;;;;;;5004834;28;19945;-75
2021/12/23 13:16:31;;;;;;;23.25;14.32;;;8.70;66.90;;;;;;4995659;28;20045;-75
2021/12/23 13:19:30;;;;;;;22.25;14.80;;;8.70;66.80;;;;;;5000968;28;20066;-75
2021/12/23 13:21:58;;;;;;;21.20;12.77;;;8.70;66.10;;;;;;4994026;28;20042;-75
2021/12/23 13:24:28;;;;;;;20.25;14.27;;;8.70;66.80;;;;;;4991732;28;20062;-74
2021/12/23 13:26:56;;;;;;;22.75;14.52;;;8.70;66.80;;;;;;4985158;28;20049;-75
2021/12/23 13:29:28;;;;;;;23.30;15.55;;;8.70;67.00;;;;;;4992105;28;20057;-75
2021/12/23 13:31:57;;;;;;;20.30;14.18;;;8.70;66.90;;;;;;4989726;28;20046;-75
2021/12/23 13:34:26;;;;;;;21.10;14.30;;;8.80;66.80;;;;;;4991368;28;20702;-75
2021/12/23 13:36:58;;;;;;;21.75;14.75;;;8.80;66.70;;;;;;4987609;28;20041;-75
2021/12/23 13:39:27;;;;;;;;;;;8.90;66.60;;;;;;4988132;28;20030;-75
2021/12/23 13:41:55;;;;;;;21.98;13.95;;;8.90;66.60;;;;;;4982764;28;19929;-75
2021/12/23 13:44:38;;;;;;;20.05;14.20;;;8.80;66.70;;;;;;4995036;28;20038;-75
2021/12/23 13:47:15;;;;;;;20.83;14.20;;;8.80;66.30;;;;;;4975045;28;20069;-75
2021/12/23 13:49:50;;;;;;;21.90;13.60;;;8.80;66.70;;;;;;5009951;28;20437;-75
2021/12/23 13:52:28;;;;;;;23.05;14.63;;;8.80;66.80;;;;;;4995898;28;20056;-75
2021/12/23 13:55:07;;;;;;;21.85;15.43;;;8.80;66.80;;;;;;5010948;28;20042;-75
2021/12/23 13:57:42;;;;;;;22.20;13.80;;;8.80;67.10;;;;;;4969614;28;20042;-75
2021/12/23 14:00:34;;;;;;;20.48;14.68;;;8.80;67.20;;;;;;4998685;28;20053;-75
2021/12/23 14:03:12;;;;;;;21.30;14.07;;;8.80;67.00;;;;;;4999692;28;20380;-75
2021/12/23 14:05:43;;;;;;;18.83;13.27;;;8.90;67.20;;;;;;4975804;28;20034;-75
2021/12/23 14:08:11;;;;;;;20.25;13.50;;;8.80;67.30;;;;;;5010192;28;20555;-75